sensor_id;sensor_type;location;lat;lon;timestamp;P1;durP1;ratioP1;P2;durP2;ratioP2
43088;SDS011;28709;52.030;5.652;2023-04-12T00:00:00;10.57;;;2.10;;
43088;SDS011;28709;52.030;5.652;2023-04-12T00:02:25;8.43;;;2.17;;
43088;SDS011;28709;52.030;5.652;2023-04-12T00:04:51;9.75;;;1.65;;
43088;SDS011;28709;52.030;5.652;2023-04-12T00:07:22;14.23;;;2.25;;
43088;SDS011;28709;52.030;5.652;2023-04-12T00:09:48;11.23;;;2.10;;
43088;SDS011;28709;52.030;5.652;2023-04-12T00:12:14;11.50;;;2.38;;
43088;SDS011;28709;52.030;5.652;2023-04-12T00:14:43;13.93;;;2.25;;
43088;SDS011;28709;52.030;5.652;2023-04-12T00:17:09;11.30;;;2.30;;
43088;SDS011;28709;52.030;5.652;2023-04-12T00:19:36;11.50;;;2.85;;
43088;SDS011;28709;52.030;5.652;2023-04-12T00:22:09;8.07;;;1.98;;
43088;SDS011;28709;52.030;5.652;2023-04-12T00:24:37;9.35;;;1.90;;
43088;SDS011;28709;52.030;5.652;2023-04-12T00:27:04;9.40;;;2.20;;
43088;SDS011;28709;52.030;5.652;2023-04-12T00:29:30;14.75;;;2.55;;
43088;SDS011;28709;52.030;5.652;2023-04-12T00:31:56;14.50;;;2.55;;
43088;SDS011;28709;52.030;5.652;2023-04-12T00:34:23;11.52;;;2.10;;
43088;SDS011;28709;52.030;5.652;2023-04-12T00:36:49;9.07;;;2.35;;
43088;SDS011;28709;52.030;5.652;2023-04-12T00:39:15;13.18;;;2.15;;
43088;SDS011;28709;52.030;5.652;2023-04-12T00:41:40;5.63;;;1.98;;
43088;SDS011;28709;52.030;5.652;2023-04-12T00:44:06;9.13;;;2.05;;
43088;SDS011;28709;52.030;5.652;2023-04-12T00:46:32;8.57;;;1.60;;
43088;SDS011;28709;52.030;5.652;2023-04-12T00:48:58;7.25;;;1.70;;
43088;SDS011;28709;52.030;5.652;2023-04-12T00:51:23;6.65;;;1.70;;
43088;SDS011;28709;52.030;5.652;2023-04-12T00:53:52;9.20;;;2.08;;
43088;SDS011;28709;52.030;5.652;2023-04-12T00:56:24;6.97;;;2.50;;
43088;SDS011;28709;52.030;5.652;2023-04-12T00:58:52;7.35;;;1.48;;
43088;SDS011;28709;52.030;5.652;2023-04-12T01:01:21;14.23;;;1.90;;
43088;SDS011;28709;52.030;5.652;2023-04-12T01:03:47;7.43;;;2.22;;
43088;SDS011;28709;52.030;5.652;2023-04-12T01:08:49;7.82;;;1.63;;
43088;SDS011;28709;52.030;5.652;2023-04-12T01:11:31;4.93;;;1.50;;
43088;SDS011;28709;52.030;5.652;2023-04-12T01:14:04;7.95;;;1.92;;
43088;SDS011;28709;52.030;5.652;2023-04-12T01:16:41;5.70;;;1.40;;
43088;SDS011;28709;52.030;5.652;2023-04-12T01:25:23;7.32;;;1.33;;
43088;SDS011;28709;52.030;5.652;2023-04-12T01:28:14;6.20;;;2.03;;
43088;SDS011;28709;52.030;5.652;2023-04-12T01:30:44;4.13;;;1.20;;
43088;SDS011;28709;52.030;5.652;2023-04-12T01:33:11;4.00;;;1.40;;
43088;SDS011;28709;52.030;5.652;2023-04-12T01:35:40;5.82;;;1.90;;
43088;SDS011;28709;52.030;5.652;2023-04-12T01:38:08;7.35;;;1.73;;
43088;SDS011;28709;52.030;5.652;2023-04-12T01:40:34;4.80;;;1.27;;
43088;SDS011;28709;52.030;5.652;2023-04-12T01:43:09;11.25;;;3.28;;
43088;SDS011;28709;52.030;5.652;2023-04-12T01:45:36;4.22;;;1.25;;
43088;SDS011;28709;52.030;5.652;2023-04-12T01:48:03;9.40;;;2.00;;
43088;SDS011;28709;52.030;5.652;2023-04-12T01:53:18;5.38;;;1.70;;
43088;SDS011;28709;52.030;5.652;2023-04-12T01:56:03;7.20;;;1.60;;
43088;SDS011;28709;52.030;5.652;2023-04-12T01:58:32;5.00;;;1.60;;
43088;SDS011;28709;52.030;5.652;2023-04-12T02:00:58;7.53;;;1.40;;
43088;SDS011;28709;52.030;5.652;2023-04-12T02:03:27;7.35;;;1.30;;
43088;SDS011;28709;52.030;5.652;2023-04-12T02:05:54;4.45;;;1.90;;
43088;SDS011;28709;52.030;5.652;2023-04-12T02:08:22;7.43;;;2.10;;
43088;SDS011;28709;52.030;5.652;2023-04-12T02:10:48;6.72;;;1.70;;
43088;SDS011;28709;52.030;5.652;2023-04-12T02:13:15;4.88;;;1.63;;
43088;SDS011;28709;52.030;5.652;2023-04-12T02:15:44;4.65;;;1.75;;
43088;SDS011;28709;52.030;5.652;2023-04-12T02:18:10;6.53;;;2.13;;
43088;SDS011;28709;52.030;5.652;2023-04-12T02:20:37;8.23;;;1.50;;
43088;SDS011;28709;52.030;5.652;2023-04-12T02:23:04;8.27;;;2.53;;
43088;SDS011;28709;52.030;5.652;2023-04-12T02:25:30;12.32;;;1.73;;
43088;SDS011;28709;52.030;5.652;2023-04-12T02:27:57;7.68;;;1.65;;
43088;SDS011;28709;52.030;5.652;2023-04-12T02:30:23;8.20;;;1.60;;
43088;SDS011;28709;52.030;5.652;2023-04-12T02:32:48;8.27;;;1.88;;
43088;SDS011;28709;52.030;5.652;2023-04-12T02:35:15;8.70;;;2.22;;
43088;SDS011;28709;52.030;5.652;2023-04-12T02:37:42;7.47;;;1.42;;
43088;SDS011;28709;52.030;5.652;2023-04-12T02:40:11;7.35;;;1.80;;
43088;SDS011;28709;52.030;5.652;2023-04-12T02:42:38;8.40;;;1.77;;
43088;SDS011;28709;52.030;5.652;2023-04-12T02:45:04;7.90;;;2.25;;
43088;SDS011;28709;52.030;5.652;2023-04-12T02:47:30;7.70;;;1.30;;
43088;SDS011;28709;52.030;5.652;2023-04-12T02:49:56;7.45;;;1.58;;
43088;SDS011;28709;52.030;5.652;2023-04-12T02:52:21;4.20;;;1.05;;
43088;SDS011;28709;52.030;5.652;2023-04-12T02:54:48;7.50;;;2.20;;
43088;SDS011;28709;52.030;5.652;2023-04-12T02:57:15;7.90;;;2.10;;
43088;SDS011;28709;52.030;5.652;2023-04-12T02:59:40;7.85;;;1.67;;
43088;SDS011;28709;52.030;5.652;2023-04-12T03:02:06;6.13;;;1.92;;
43088;SDS011;28709;52.030;5.652;2023-04-12T03:04:33;7.72;;;1.70;;
43088;SDS011;28709;52.030;5.652;2023-04-12T03:07:01;7.57;;;1.65;;
43088;SDS011;28709;52.030;5.652;2023-04-12T03:09:27;7.05;;;2.00;;
43088;SDS011;28709;52.030;5.652;2023-04-12T03:11:53;5.05;;;1.30;;
43088;SDS011;28709;52.030;5.652;2023-04-12T03:14:18;5.85;;;1.50;;
43088;SDS011;28709;52.030;5.652;2023-04-12T03:16:44;5.15;;;1.65;;
43088;SDS011;28709;52.030;5.652;2023-04-12T03:19:10;4.82;;;1.60;;
43088;SDS011;28709;52.030;5.652;2023-04-12T03:21:35;7.75;;;1.52;;
43088;SDS011;28709;52.030;5.652;2023-04-12T03:24:01;8.35;;;1.67;;
43088;SDS011;28709;52.030;5.652;2023-04-12T03:26:28;6.88;;;1.38;;
43088;SDS011;28709;52.030;5.652;2023-04-12T03:28:58;6.03;;;1.33;;
43088;SDS011;28709;52.030;5.652;2023-04-12T03:31:25;3.40;;;1.33;;
43088;SDS011;28709;52.030;5.652;2023-04-12T03:33:52;5.43;;;1.30;;
43088;SDS011;28709;52.030;5.652;2023-04-12T03:36:18;3.30;;;1.50;;
43088;SDS011;28709;52.030;5.652;2023-04-12T03:38:47;4.03;;;1.25;;
43088;SDS011;28709;52.030;5.652;2023-04-12T03:41:14;7.15;;;1.90;;
43088;SDS011;28709;52.030;5.652;2023-04-12T03:43:40;6.95;;;1.88;;
43088;SDS011;28709;52.030;5.652;2023-04-12T03:46:06;5.00;;;1.50;;
43088;SDS011;28709;52.030;5.652;2023-04-12T03:48:32;5.07;;;1.10;;
43088;SDS011;28709;52.030;5.652;2023-04-12T03:50:58;5.07;;;1.15;;
43088;SDS011;28709;52.030;5.652;2023-04-12T03:53:25;4.65;;;1.30;;
43088;SDS011;28709;52.030;5.652;2023-04-12T03:55:55;4.78;;;1.30;;
43088;SDS011;28709;52.030;5.652;2023-04-12T03:58:21;5.72;;;1.75;;
43088;SDS011;28709;52.030;5.652;2023-04-12T04:00:47;2.97;;;1.38;;
43088;SDS011;28709;52.030;5.652;2023-04-12T04:03:13;4.60;;;1.33;;
43088;SDS011;28709;52.030;5.652;2023-04-12T04:10:50;5.07;;;1.10;;
43088;SDS011;28709;52.030;5.652;2023-04-12T04:13:15;5.35;;;1.10;;
43088;SDS011;28709;52.030;5.652;2023-04-12T04:15:41;3.65;;;1.00;;
43088;SDS011;28709;52.030;5.652;2023-04-12T04:18:07;6.50;;;1.40;;
43088;SDS011;28709;52.030;5.652;2023-04-12T04:20:32;8.80;;;1.40;;
43088;SDS011;28709;52.030;5.652;2023-04-12T04:22:58;3.95;;;1.30;;
43088;SDS011;28709;52.030;5.652;2023-04-12T04:25:24;6.88;;;1.35;;
43088;SDS011;28709;52.030;5.652;2023-04-12T04:27:54;7.93;;;1.30;;
43088;SDS011;28709;52.030;5.652;2023-04-12T04:30:20;5.03;;;1.23;;
43088;SDS011;28709;52.030;5.652;2023-04-12T04:32:47;6.95;;;1.52;;
43088;SDS011;28709;52.030;5.652;2023-04-12T04:35:13;4.97;;;1.23;;
43088;SDS011;28709;52.030;5.652;2023-04-12T04:37:40;3.53;;;1.10;;
43088;SDS011;28709;52.030;5.652;2023-04-12T04:40:07;2.45;;;1.20;;
43088;SDS011;28709;52.030;5.652;2023-04-12T04:42:35;4.00;;;1.42;;
43088;SDS011;28709;52.030;5.652;2023-04-12T04:45:02;2.72;;;1.15;;
43088;SDS011;28709;52.030;5.652;2023-04-12T04:47:29;3.17;;;1.42;;
43088;SDS011;28709;52.030;5.652;2023-04-12T04:49:55;5.63;;;1.33;;
43088;SDS011;28709;52.030;5.652;2023-04-12T04:52:22;7.05;;;1.50;;
43088;SDS011;28709;52.030;5.652;2023-04-12T04:54:48;6.13;;;1.40;;
43088;SDS011;28709;52.030;5.652;2023-04-12T04:57:14;8.35;;;1.60;;
43088;SDS011;28709;52.030;5.652;2023-04-12T04:59:39;5.93;;;2.00;;
43088;SDS011;28709;52.030;5.652;2023-04-12T05:02:05;6.43;;;1.48;;
43088;SDS011;28709;52.030;5.652;2023-04-12T05:04:31;4.97;;;1.42;;
43088;SDS011;28709;52.030;5.652;2023-04-12T05:06:57;5.65;;;1.67;;
43088;SDS011;28709;52.030;5.652;2023-04-12T05:09:22;7.47;;;1.20;;
43088;SDS011;28709;52.030;5.652;2023-04-12T05:11:48;4.60;;;1.83;;
43088;SDS011;28709;52.030;5.652;2023-04-12T05:14:14;5.90;;;1.70;;
43088;SDS011;28709;52.030;5.652;2023-04-12T05:16:40;3.83;;;1.38;;
43088;SDS011;28709;52.030;5.652;2023-04-12T05:19:06;3.97;;;1.45;;
43088;SDS011;28709;52.030;5.652;2023-04-12T05:21:32;5.22;;;1.80;;
43088;SDS011;28709;52.030;5.652;2023-04-12T05:23:58;2.70;;;1.48;;
43088;SDS011;28709;52.030;5.652;2023-04-12T05:26:24;5.78;;;1.60;;
43088;SDS011;28709;52.030;5.652;2023-04-12T05:28:50;3.83;;;1.58;;
43088;SDS011;28709;52.030;5.652;2023-04-12T05:31:15;5.38;;;1.30;;
43088;SDS011;28709;52.030;5.652;2023-04-12T05:33:42;5.60;;;1.38;;
43088;SDS011;28709;52.030;5.652;2023-04-12T05:36:09;6.05;;;1.55;;
43088;SDS011;28709;52.030;5.652;2023-04-12T05:38:35;4.10;;;1.70;;
43088;SDS011;28709;52.030;5.652;2023-04-12T05:41:00;6.00;;;1.48;;
43088;SDS011;28709;52.030;5.652;2023-04-12T05:43:29;2.90;;;1.77;;
43088;SDS011;28709;52.030;5.652;2023-04-12T05:45:56;6.95;;;1.65;;
43088;SDS011;28709;52.030;5.652;2023-04-12T05:48:22;5.60;;;1.77;;
43088;SDS011;28709;52.030;5.652;2023-04-12T05:50:51;3.70;;;1.60;;
43088;SDS011;28709;52.030;5.652;2023-04-12T05:53:17;4.28;;;1.70;;
43088;SDS011;28709;52.030;5.652;2023-04-12T05:55:43;3.10;;;1.50;;
43088;SDS011;28709;52.030;5.652;2023-04-12T05:58:09;4.28;;;2.22;;
43088;SDS011;28709;52.030;5.652;2023-04-12T06:00:35;3.28;;;1.70;;
43088;SDS011;28709;52.030;5.652;2023-04-12T06:03:02;2.92;;;1.70;;
43088;SDS011;28709;52.030;5.652;2023-04-12T06:05:28;6.80;;;2.15;;
43088;SDS011;28709;52.030;5.652;2023-04-12T06:07:54;4.57;;;1.70;;
43088;SDS011;28709;52.030;5.652;2023-04-12T06:10:20;4.40;;;2.05;;
43088;SDS011;28709;52.030;5.652;2023-04-12T06:12:45;5.63;;;2.47;;
43088;SDS011;28709;52.030;5.652;2023-04-12T06:15:11;3.90;;;1.92;;
43088;SDS011;28709;52.030;5.652;2023-04-12T06:17:37;3.65;;;1.42;;
43088;SDS011;28709;52.030;5.652;2023-04-12T06:20:03;4.47;;;1.60;;
43088;SDS011;28709;52.030;5.652;2023-04-12T06:22:33;3.70;;;1.48;;
43088;SDS011;28709;52.030;5.652;2023-04-12T06:24:59;3.38;;;1.75;;
43088;SDS011;28709;52.030;5.652;2023-04-12T06:27:25;3.80;;;1.48;;
43088;SDS011;28709;52.030;5.652;2023-04-12T06:29:51;4.30;;;1.90;;
43088;SDS011;28709;52.030;5.652;2023-04-12T06:32:17;4.50;;;1.80;;
43088;SDS011;28709;52.030;5.652;2023-04-12T06:34:42;5.40;;;1.88;;
43088;SDS011;28709;52.030;5.652;2023-04-12T06:37:08;3.95;;;2.13;;
43088;SDS011;28709;52.030;5.652;2023-04-12T06:39:34;4.10;;;1.80;;
43088;SDS011;28709;52.030;5.652;2023-04-12T06:41:59;5.20;;;2.28;;
43088;SDS011;28709;52.030;5.652;2023-04-12T06:44:25;4.07;;;1.50;;
43088;SDS011;28709;52.030;5.652;2023-04-12T06:46:52;7.05;;;1.95;;
43088;SDS011;28709;52.030;5.652;2023-04-12T06:49:17;3.30;;;1.58;;
43088;SDS011;28709;52.030;5.652;2023-04-12T06:51:43;3.17;;;1.52;;
43088;SDS011;28709;52.030;5.652;2023-04-12T06:54:09;2.55;;;1.58;;
43088;SDS011;28709;52.030;5.652;2023-04-12T06:56:36;6.70;;;1.58;;
43088;SDS011;28709;52.030;5.652;2023-04-12T06:59:02;2.88;;;1.50;;
43088;SDS011;28709;52.030;5.652;2023-04-12T07:01:27;3.33;;;1.75;;
43088;SDS011;28709;52.030;5.652;2023-04-12T07:03:53;1.63;;;1.40;;
43088;SDS011;28709;52.030;5.652;2023-04-12T07:06:19;3.55;;;1.67;;
43088;SDS011;28709;52.030;5.652;2023-04-12T07:08:45;8.30;;;2.65;;
43088;SDS011;28709;52.030;5.652;2023-04-12T07:11:10;4.97;;;1.88;;
43088;SDS011;28709;52.030;5.652;2023-04-12T07:13:36;4.47;;;1.70;;
43088;SDS011;28709;52.030;5.652;2023-04-12T07:16:02;2.45;;;1.58;;
43088;SDS011;28709;52.030;5.652;2023-04-12T07:18:27;5.35;;;1.95;;
43088;SDS011;28709;52.030;5.652;2023-04-12T07:20:53;2.63;;;1.73;;
43088;SDS011;28709;52.030;5.652;2023-04-12T07:23:21;4.97;;;1.80;;
43088;SDS011;28709;52.030;5.652;2023-04-12T07:25:47;4.10;;;2.00;;
43088;SDS011;28709;52.030;5.652;2023-04-12T07:28:12;5.47;;;3.28;;
43088;SDS011;28709;52.030;5.652;2023-04-12T07:30:38;2.35;;;1.70;;
43088;SDS011;28709;52.030;5.652;2023-04-12T07:33:04;3.33;;;2.08;;
43088;SDS011;28709;52.030;5.652;2023-04-12T07:35:31;3.60;;;2.10;;
43088;SDS011;28709;52.030;5.652;2023-04-12T07:37:57;6.53;;;2.55;;
43088;SDS011;28709;52.030;5.652;2023-04-12T07:40:25;6.85;;;2.47;;
43088;SDS011;28709;52.030;5.652;2023-04-12T07:42:50;5.45;;;2.65;;
43088;SDS011;28709;52.030;5.652;2023-04-12T07:45:16;4.10;;;2.35;;
43088;SDS011;28709;52.030;5.652;2023-04-12T07:47:43;6.18;;;2.67;;
43088;SDS011;28709;52.030;5.652;2023-04-12T07:50:08;8.20;;;2.58;;
43088;SDS011;28709;52.030;5.652;2023-04-12T07:52:34;7.43;;;3.10;;
43088;SDS011;28709;52.030;5.652;2023-04-12T07:55:00;6.85;;;2.80;;
43088;SDS011;28709;52.030;5.652;2023-04-12T07:57:26;5.07;;;2.40;;
43088;SDS011;28709;52.030;5.652;2023-04-12T07:59:52;8.00;;;2.40;;
43088;SDS011;28709;52.030;5.652;2023-04-12T08:02:17;7.18;;;3.10;;
43088;SDS011;28709;52.030;5.652;2023-04-12T08:04:49;6.65;;;3.05;;
43088;SDS011;28709;52.030;5.652;2023-04-12T08:07:15;9.68;;;2.63;;
43088;SDS011;28709;52.030;5.652;2023-04-12T08:09:41;6.32;;;2.33;;
43088;SDS011;28709;52.030;5.652;2023-04-12T08:12:06;11.10;;;2.63;;
43088;SDS011;28709;52.030;5.652;2023-04-12T08:14:32;5.60;;;2.50;;
43088;SDS011;28709;52.030;5.652;2023-04-12T08:16:58;5.80;;;2.35;;
43088;SDS011;28709;52.030;5.652;2023-04-12T08:19:23;11.15;;;3.63;;
43088;SDS011;28709;52.030;5.652;2023-04-12T08:21:49;11.13;;;2.50;;
43088;SDS011;28709;52.030;5.652;2023-04-12T08:24:15;5.68;;;2.20;;
43088;SDS011;28709;52.030;5.652;2023-04-12T08:26:40;9.80;;;2.28;;
43088;SDS011;28709;52.030;5.652;2023-04-12T08:29:06;7.38;;;2.78;;
43088;SDS011;28709;52.030;5.652;2023-04-12T08:31:32;11.23;;;2.30;;
43088;SDS011;28709;52.030;5.652;2023-04-12T08:33:58;6.50;;;2.22;;
43088;SDS011;28709;52.030;5.652;2023-04-12T08:36:24;9.60;;;2.72;;
43088;SDS011;28709;52.030;5.652;2023-04-12T08:38:51;5.97;;;1.80;;
43088;SDS011;28709;52.030;5.652;2023-04-12T08:41:19;6.35;;;2.42;;
43088;SDS011;28709;52.030;5.652;2023-04-12T08:43:45;9.85;;;2.80;;
43088;SDS011;28709;52.030;5.652;2023-04-12T08:46:15;19.10;;;3.45;;
43088;SDS011;28709;52.030;5.652;2023-04-12T08:48:42;15.02;;;3.58;;
43088;SDS011;28709;52.030;5.652;2023-04-12T08:51:12;12.77;;;3.28;;
43088;SDS011;28709;52.030;5.652;2023-04-12T08:53:39;6.65;;;2.45;;
43088;SDS011;28709;52.030;5.652;2023-04-12T08:56:10;11.18;;;2.65;;
43088;SDS011;28709;52.030;5.652;2023-04-12T08:58:38;10.57;;;2.45;;
43088;SDS011;28709;52.030;5.652;2023-04-12T09:01:11;12.57;;;2.30;;
43088;SDS011;28709;52.030;5.652;2023-04-12T09:03:39;11.90;;;2.80;;
43088;SDS011;28709;52.030;5.652;2023-04-12T09:06:06;14.35;;;2.53;;
43088;SDS011;28709;52.030;5.652;2023-04-12T09:08:31;17.92;;;3.80;;
43088;SDS011;28709;52.030;5.652;2023-04-12T09:10:58;18.50;;;3.47;;
43088;SDS011;28709;52.030;5.652;2023-04-12T09:13:33;12.35;;;2.70;;
43088;SDS011;28709;52.030;5.652;2023-04-12T09:15:59;15.20;;;3.53;;
43088;SDS011;28709;52.030;5.652;2023-04-12T09:18:25;13.82;;;2.92;;
43088;SDS011;28709;52.030;5.652;2023-04-12T09:21:06;16.48;;;3.33;;
43088;SDS011;28709;52.030;5.652;2023-04-12T09:23:33;8.20;;;2.13;;
43088;SDS011;28709;52.030;5.652;2023-04-12T09:26:02;13.65;;;3.95;;
43088;SDS011;28709;52.030;5.652;2023-04-12T09:28:28;17.02;;;2.63;;
43088;SDS011;28709;52.030;5.652;2023-04-12T09:30:58;22.70;;;3.17;;
43088;SDS011;28709;52.030;5.652;2023-04-12T09:38:25;13.38;;;2.40;;
43088;SDS011;28709;52.030;5.652;2023-04-12T09:40:51;15.32;;;3.22;;
43088;SDS011;28709;52.030;5.652;2023-04-12T09:43:18;13.07;;;2.88;;
43088;SDS011;28709;52.030;5.652;2023-04-12T09:45:44;15.50;;;2.60;;
43088;SDS011;28709;52.030;5.652;2023-04-12T09:48:17;11.77;;;2.55;;
43088;SDS011;28709;52.030;5.652;2023-04-12T09:50:45;11.70;;;2.38;;
43088;SDS011;28709;52.030;5.652;2023-04-12T09:53:15;19.77;;;3.20;;
43088;SDS011;28709;52.030;5.652;2023-04-12T09:55:42;14.18;;;2.65;;
43088;SDS011;28709;52.030;5.652;2023-04-12T09:58:08;15.07;;;2.50;;
43088;SDS011;28709;52.030;5.652;2023-04-12T10:00:35;19.02;;;3.28;;
43088;SDS011;28709;52.030;5.652;2023-04-12T10:03:01;16.80;;;2.80;;
43088;SDS011;28709;52.030;5.652;2023-04-12T10:05:27;17.15;;;3.25;;
43088;SDS011;28709;52.030;5.652;2023-04-12T10:07:53;13.48;;;3.75;;
43088;SDS011;28709;52.030;5.652;2023-04-12T10:10:19;18.08;;;3.45;;
43088;SDS011;28709;52.030;5.652;2023-04-12T10:12:45;11.43;;;2.33;;
43088;SDS011;28709;52.030;5.652;2023-04-12T10:15:12;21.60;;;2.95;;
43088;SDS011;28709;52.030;5.652;2023-04-12T10:20:11;14.02;;;2.95;;
43088;SDS011;28709;52.030;5.652;2023-04-12T10:22:38;10.88;;;2.33;;
43088;SDS011;28709;52.030;5.652;2023-04-12T10:25:13;11.75;;;2.10;;
43088;SDS011;28709;52.030;5.652;2023-04-12T10:27:40;14.35;;;2.30;;
43088;SDS011;28709;52.030;5.652;2023-04-12T10:32:47;12.73;;;3.30;;
43088;SDS011;28709;52.030;5.652;2023-04-12T10:35:14;18.10;;;3.22;;
43088;SDS011;28709;52.030;5.652;2023-04-12T10:40:26;12.55;;;2.85;;
43088;SDS011;28709;52.030;5.652;2023-04-12T10:45:46;10.23;;;2.40;;
43088;SDS011;28709;52.030;5.652;2023-04-12T10:51:21;18.52;;;2.70;;
43088;SDS011;28709;52.030;5.652;2023-04-12T10:53:53;15.27;;;2.85;;
43088;SDS011;28709;52.030;5.652;2023-04-12T10:56:38;10.30;;;2.55;;
43088;SDS011;28709;52.030;5.652;2023-04-12T10:59:05;12.75;;;2.03;;
43088;SDS011;28709;52.030;5.652;2023-04-12T11:01:35;12.48;;;2.40;;
43088;SDS011;28709;52.030;5.652;2023-04-12T11:09:15;17.67;;;2.78;;
43088;SDS011;28709;52.030;5.652;2023-04-12T11:12:12;11.05;;;2.60;;
43088;SDS011;28709;52.030;5.652;2023-04-12T11:14:48;12.13;;;2.03;;
43088;SDS011;28709;52.030;5.652;2023-04-12T11:22:11;16.13;;;2.40;;
43088;SDS011;28709;52.030;5.652;2023-04-12T11:24:40;15.43;;;2.10;;
43088;SDS011;28709;52.030;5.652;2023-04-12T11:27:08;17.38;;;2.70;;
43088;SDS011;28709;52.030;5.652;2023-04-12T11:29:35;18.38;;;3.03;;
43088;SDS011;28709;52.030;5.652;2023-04-12T11:32:04;11.32;;;2.17;;
43088;SDS011;28709;52.030;5.652;2023-04-12T11:34:34;8.45;;;1.98;;
43088;SDS011;28709;52.030;5.652;2023-04-12T11:37:01;16.25;;;3.08;;
43088;SDS011;28709;52.030;5.652;2023-04-12T11:39:30;11.38;;;2.10;;
43088;SDS011;28709;52.030;5.652;2023-04-12T11:41:56;18.40;;;3.03;;
43088;SDS011;28709;52.030;5.652;2023-04-12T11:44:22;12.73;;;2.05;;
43088;SDS011;28709;52.030;5.652;2023-04-12T11:46:48;11.90;;;2.60;;
43088;SDS011;28709;52.030;5.652;2023-04-12T11:49:14;9.57;;;1.70;;
43088;SDS011;28709;52.030;5.652;2023-04-12T11:51:41;8.45;;;1.23;;
43088;SDS011;28709;52.030;5.652;2023-04-12T11:54:07;7.75;;;1.35;;
43088;SDS011;28709;52.030;5.652;2023-04-12T11:56:35;7.53;;;2.28;;
43088;SDS011;28709;52.030;5.652;2023-04-12T11:59:01;7.85;;;1.50;;
43088;SDS011;28709;52.030;5.652;2023-04-12T12:01:27;13.43;;;1.92;;
43088;SDS011;28709;52.030;5.652;2023-04-12T12:03:53;12.65;;;1.60;;
43088;SDS011;28709;52.030;5.652;2023-04-12T12:06:19;9.40;;;2.08;;
43088;SDS011;28709;52.030;5.652;2023-04-12T12:08:47;12.65;;;2.00;;
43088;SDS011;28709;52.030;5.652;2023-04-12T12:11:15;17.90;;;2.03;;
43088;SDS011;28709;52.030;5.652;2023-04-12T12:13:42;7.25;;;1.77;;
43088;SDS011;28709;52.030;5.652;2023-04-12T12:16:10;14.48;;;1.63;;
43088;SDS011;28709;52.030;5.652;2023-04-12T12:18:40;8.95;;;1.73;;
43088;SDS011;28709;52.030;5.652;2023-04-12T12:21:12;12.32;;;1.83;;
43088;SDS011;28709;52.030;5.652;2023-04-12T12:23:40;18.30;;;2.35;;
43088;SDS011;28709;52.030;5.652;2023-04-12T12:26:07;8.88;;;1.65;;
43088;SDS011;28709;52.030;5.652;2023-04-12T12:28:36;10.07;;;2.15;;
43088;SDS011;28709;52.030;5.652;2023-04-12T12:31:06;11.38;;;2.35;;
43088;SDS011;28709;52.030;5.652;2023-04-12T12:33:37;15.30;;;2.40;;
43088;SDS011;28709;52.030;5.652;2023-04-12T12:36:06;5.95;;;1.13;;
43088;SDS011;28709;52.030;5.652;2023-04-12T12:38:36;5.40;;;1.27;;
43088;SDS011;28709;52.030;5.652;2023-04-12T12:41:16;5.40;;;1.20;;
43088;SDS011;28709;52.030;5.652;2023-04-12T12:43:48;6.30;;;0.98;;
43088;SDS011;28709;52.030;5.652;2023-04-12T12:46:15;8.73;;;1.80;;
43088;SDS011;28709;52.030;5.652;2023-04-12T12:48:44;7.30;;;1.23;;
43088;SDS011;28709;52.030;5.652;2023-04-12T12:51:11;6.90;;;1.30;;
43088;SDS011;28709;52.030;5.652;2023-04-12T12:53:39;7.30;;;1.90;;
43088;SDS011;28709;52.030;5.652;2023-04-12T12:56:06;8.00;;;2.22;;
43088;SDS011;28709;52.030;5.652;2023-04-12T12:58:33;6.20;;;1.63;;
43088;SDS011;28709;52.030;5.652;2023-04-12T13:00:59;12.45;;;1.88;;
43088;SDS011;28709;52.030;5.652;2023-04-12T13:03:24;12.07;;;2.30;;
43088;SDS011;28709;52.030;5.652;2023-04-12T13:05:50;7.93;;;1.70;;
43088;SDS011;28709;52.030;5.652;2023-04-12T13:08:16;12.65;;;2.80;;
43088;SDS011;28709;52.030;5.652;2023-04-12T13:10:42;9.35;;;1.92;;
43088;SDS011;28709;52.030;5.652;2023-04-12T13:13:08;7.57;;;1.23;;
43088;SDS011;28709;52.030;5.652;2023-04-12T13:15:34;12.90;;;1.60;;
43088;SDS011;28709;52.030;5.652;2023-04-12T13:18:00;7.03;;;2.60;;
43088;SDS011;28709;52.030;5.652;2023-04-12T13:20:25;7.50;;;1.30;;
43088;SDS011;28709;52.030;5.652;2023-04-12T13:22:52;9.63;;;1.63;;
43088;SDS011;28709;52.030;5.652;2023-04-12T13:25:17;5.63;;;1.45;;
43088;SDS011;28709;52.030;5.652;2023-04-12T13:27:44;4.82;;;1.33;;
43088;SDS011;28709;52.030;5.652;2023-04-12T13:30:12;8.57;;;1.63;;
43088;SDS011;28709;52.030;5.652;2023-04-12T13:32:37;8.00;;;1.50;;
43088;SDS011;28709;52.030;5.652;2023-04-12T13:35:03;9.57;;;1.42;;
43088;SDS011;28709;52.030;5.652;2023-04-12T13:37:29;7.85;;;1.15;;
43088;SDS011;28709;52.030;5.652;2023-04-12T13:39:55;6.57;;;1.02;;
43088;SDS011;28709;52.030;5.652;2023-04-12T13:42:21;6.25;;;1.27;;
43088;SDS011;28709;52.030;5.652;2023-04-12T13:44:47;8.07;;;1.30;;
43088;SDS011;28709;52.030;5.652;2023-04-12T13:47:14;9.80;;;1.50;;
43088;SDS011;28709;52.030;5.652;2023-04-12T13:49:40;8.48;;;0.98;;
43088;SDS011;28709;52.030;5.652;2023-04-12T13:52:06;6.43;;;1.00;;
43088;SDS011;28709;52.030;5.652;2023-04-12T13:54:31;4.07;;;1.23;;
43088;SDS011;28709;52.030;5.652;2023-04-12T13:56:57;7.53;;;1.05;;
43088;SDS011;28709;52.030;5.652;2023-04-12T13:59:24;4.45;;;0.95;;
43088;SDS011;28709;52.030;5.652;2023-04-12T14:01:50;5.30;;;1.38;;
43088;SDS011;28709;52.030;5.652;2023-04-12T14:04:16;4.07;;;0.82;;
43088;SDS011;28709;52.030;5.652;2023-04-12T14:06:42;4.45;;;1.02;;
43088;SDS011;28709;52.030;5.652;2023-04-12T14:09:14;5.60;;;1.08;;
43088;SDS011;28709;52.030;5.652;2023-04-12T14:11:50;5.40;;;0.98;;
43088;SDS011;28709;52.030;5.652;2023-04-12T14:14:19;4.75;;;1.50;;
43088;SDS011;28709;52.030;5.652;2023-04-12T14:16:44;3.35;;;0.82;;
43088;SDS011;28709;52.030;5.652;2023-04-12T14:19:10;3.03;;;0.68;;
43088;SDS011;28709;52.030;5.652;2023-04-12T14:21:36;3.40;;;0.70;;
43088;SDS011;28709;52.030;5.652;2023-04-12T14:24:02;3.92;;;0.60;;
43088;SDS011;28709;52.030;5.652;2023-04-12T14:26:28;4.72;;;0.80;;
43088;SDS011;28709;52.030;5.652;2023-04-12T14:28:53;7.63;;;1.00;;
43088;SDS011;28709;52.030;5.652;2023-04-12T14:31:19;3.80;;;1.08;;
43088;SDS011;28709;52.030;5.652;2023-04-12T14:33:45;3.97;;;0.80;;
43088;SDS011;28709;52.030;5.652;2023-04-12T14:36:11;4.18;;;0.90;;
43088;SDS011;28709;52.030;5.652;2023-04-12T14:38:36;3.35;;;0.60;;
43088;SDS011;28709;52.030;5.652;2023-04-12T14:41:05;7.57;;;1.20;;
43088;SDS011;28709;52.030;5.652;2023-04-12T14:43:32;2.30;;;0.65;;
43088;SDS011;28709;52.030;5.652;2023-04-12T14:45:58;2.88;;;1.05;;
43088;SDS011;28709;52.030;5.652;2023-04-12T14:48:24;2.60;;;0.98;;
43088;SDS011;28709;52.030;5.652;2023-04-12T14:50:49;1.55;;;0.65;;
43088;SDS011;28709;52.030;5.652;2023-04-12T14:53:15;4.30;;;1.17;;
43088;SDS011;28709;52.030;5.652;2023-04-12T14:55:42;3.55;;;1.20;;
43088;SDS011;28709;52.030;5.652;2023-04-12T14:58:08;3.67;;;0.98;;
43088;SDS011;28709;52.030;5.652;2023-04-12T15:00:34;3.15;;;0.75;;
43088;SDS011;28709;52.030;5.652;2023-04-12T15:02:59;8.05;;;0.90;;
43088;SDS011;28709;52.030;5.652;2023-04-12T15:05:25;2.45;;;0.57;;
43088;SDS011;28709;52.030;5.652;2023-04-12T15:07:52;3.67;;;1.00;;
43088;SDS011;28709;52.030;5.652;2023-04-12T15:10:18;3.75;;;1.05;;
43088;SDS011;28709;52.030;5.652;2023-04-12T15:12:45;3.53;;;0.85;;
43088;SDS011;28709;52.030;5.652;2023-04-12T15:15:11;4.68;;;0.95;;
43088;SDS011;28709;52.030;5.652;2023-04-12T15:17:37;5.15;;;1.27;;
43088;SDS011;28709;52.030;5.652;2023-04-12T15:20:03;6.13;;;1.05;;
43088;SDS011;28709;52.030;5.652;2023-04-12T15:22:47;5.40;;;0.70;;
43088;SDS011;28709;52.030;5.652;2023-04-12T15:25:12;3.60;;;0.98;;
43088;SDS011;28709;52.030;5.652;2023-04-12T15:27:39;2.13;;;0.43;;
43088;SDS011;28709;52.030;5.652;2023-04-12T15:30:05;2.38;;;1.05;;